createdAt,value
2019-02-26T00:02:17.307Z,51.80
2019-02-26T00:04:49.155Z,51.90
2019-02-26T00:07:22.370Z,51.90
2019-02-26T00:09:51.364Z,52.50
2019-02-26T00:12:23.892Z,52.00
2019-02-26T00:14:54.266Z,52.10
2019-02-26T00:17:22.344Z,52.10
2019-02-26T00:19:51.550Z,52.10
2019-02-26T00:22:20.781Z,52.20
2019-02-26T00:24:49.985Z,52.20
2019-02-26T00:27:19.138Z,52.20
2019-02-26T00:29:50.425Z,52.30
2019-02-26T00:32:19.461Z,52.30
2019-02-26T00:34:48.618Z,52.40
2019-02-26T00:37:19.962Z,52.30
2019-02-26T00:39:49.764Z,52.40
2019-02-26T00:42:23.579Z,52.40
2019-02-26T00:44:53.314Z,52.40
2019-02-26T00:47:21.609Z,52.40
2019-02-26T00:49:51.787Z,52.50
2019-02-26T00:52:22.627Z,52.60
2019-02-26T00:54:53.637Z,52.50
2019-02-26T00:57:22.702Z,52.60
2019-02-26T00:59:51.990Z,52.60
2019-02-26T01:02:21.182Z,52.70
2019-02-26T01:04:50.975Z,52.80
2019-02-26T01:07:21.337Z,52.80
2019-02-26T01:09:52.471Z,52.80
2019-02-26T01:12:21.979Z,52.80
2019-02-26T01:14:51.529Z,52.80
2019-02-26T01:17:20.701Z,52.90
2019-02-26T01:19:49.889Z,53.00
2019-02-26T01:22:19.055Z,53.00
2019-02-26T01:24:49.781Z,53.10
2019-02-26T01:27:19.197Z,53.10
2019-02-26T01:29:51.218Z,53.10
2019-02-26T01:32:20.926Z,53.30
2019-02-26T01:34:50.193Z,53.20
2019-02-26T01:37:19.383Z,53.20
2019-02-26T01:39:50.067Z,53.50
2019-02-26T01:42:24.251Z,53.30
2019-02-26T01:44:50.535Z,53.30
2019-02-26T01:47:21.834Z,53.40
2019-02-26T01:49:51.104Z,53.50
2019-02-26T01:52:20.369Z,53.60
2019-02-26T01:54:51.268Z,53.60
2019-02-26T01:57:20.434Z,53.70
2019-02-26T01:59:50.227Z,53.60
2019-02-26T02:02:20.302Z,53.90
2019-02-26T02:04:50.760Z,53.70
2019-02-26T02:07:21.914Z,53.60
2019-02-26T02:09:53.268Z,53.90
2019-02-26T02:12:25.412Z,54.00
2019-02-26T02:14:53.629Z,54.00
2019-02-26T02:17:22.908Z,53.70
2019-02-26T02:19:52.081Z,53.90
2019-02-26T02:22:21.489Z,54.00
2019-02-26T02:24:53.387Z,53.90
2019-02-26T02:27:26.787Z,53.90
2019-02-26T02:29:55.447Z,54.00
2019-02-26T02:32:26.625Z,54.10
2019-02-26T02:34:58.248Z,54.20
2019-02-26T02:40:52.847Z,54.20
2019-02-26T02:43:23.583Z,54.30
2019-02-26T02:45:55.677Z,54.40
2019-02-26T02:48:23.964Z,54.50
2019-02-26T02:50:53.208Z,54.60
2019-02-26T02:53:23.948Z,54.80
2019-02-26T02:55:53.409Z,54.70
2019-02-26T02:58:23.943Z,54.60
2019-02-26T03:00:54.411Z,54.80
2019-02-26T03:03:24.454Z,54.80
2019-02-26T03:05:53.908Z,54.90
2019-02-26T03:08:23.201Z,54.80
2019-02-26T03:10:52.497Z,55.20
2019-02-26T03:13:24.860Z,55.10
2019-02-26T03:15:53.556Z,55.10
2019-02-26T03:18:23.502Z,55.00
2019-02-26T03:20:53.923Z,55.10
2019-02-26T03:23:23.664Z,55.10
2019-02-26T03:25:54.969Z,55.10
2019-02-26T03:28:24.076Z,55.20
2019-02-26T03:30:54.285Z,55.10
2019-02-26T03:33:23.483Z,55.20
2019-02-26T03:35:53.074Z,55.20
2019-02-26T03:38:23.488Z,55.20
2019-02-26T03:40:55.542Z,55.40
2019-02-26T03:43:24.456Z,55.60
2019-02-26T03:45:53.717Z,55.40
2019-02-26T03:48:22.924Z,55.50
2019-02-26T03:50:52.370Z,55.50
2019-02-26T03:53:25.532Z,55.40
2019-02-26T03:55:52.792Z,55.40
2019-02-26T03:58:22.036Z,55.40
2019-02-26T04:00:51.297Z,55.50
2019-02-26T04:03:20.598Z,55.70
2019-02-26T04:05:49.842Z,55.80
2019-02-26T04:08:21.893Z,55.90
2019-02-26T04:10:52.807Z,56.00
2019-02-26T04:13:21.192Z,55.90
2019-02-26T04:15:52.866Z,55.90
2019-02-26T04:18:21.329Z,55.90
2019-02-26T04:20:50.621Z,55.90
2019-02-26T04:23:21.886Z,55.90
2019-02-26T04:26:01.759Z,55.90
2019-02-26T04:28:40.191Z,56.40
2019-02-26T04:31:34.135Z,56.20
2019-02-26T04:34:08.581Z,56.30
2019-02-26T04:37:04.753Z,56.10
2019-02-26T04:39:49.439Z,56.30
2019-02-26T04:42:32.543Z,56.40
2019-02-26T04:45:12.980Z,56.50
2019-02-26T04:47:57.029Z,56.50
2019-02-26T04:50:28.892Z,56.50
2019-02-26T04:52:59.744Z,56.50
2019-02-26T04:55:29.738Z,56.50
2019-02-26T04:57:58.924Z,56.60
2019-02-26T05:00:30.469Z,56.70
2019-02-26T05:02:59.077Z,56.70
2019-02-26T05:05:33.672Z,56.70
2019-02-26T05:07:59.475Z,56.90
2019-02-26T05:10:29.950Z,56.90
2019-02-26T05:13:01.061Z,57.10
2019-02-26T05:15:33.177Z,56.80
2019-02-26T05:18:01.435Z,56.90
2019-02-26T05:20:31.429Z,57.00
2019-02-26T05:23:03.110Z,57.10
2019-02-26T05:25:34.412Z,57.20
2019-02-26T05:28:03.782Z,57.10
2019-02-26T05:30:33.779Z,57.00
2019-02-26T05:33:05.383Z,57.00
2019-02-26T05:35:33.855Z,57.00
2019-02-26T05:38:06.079Z,57.00
2019-02-26T05:40:37.462Z,57.00
2019-02-26T05:43:06.771Z,57.10
2019-02-26T05:45:35.923Z,57.00
2019-02-26T05:48:05.327Z,57.30
2019-02-26T05:50:37.950Z,57.30
2019-02-26T05:53:07.584Z,57.40
2019-02-26T05:55:36.997Z,57.20
2019-02-26T05:58:07.468Z,57.30
2019-02-26T06:00:37.160Z,57.40
2019-02-26T06:03:09.701Z,57.40
2019-02-26T06:05:41.219Z,57.40
2019-02-26T06:08:08.302Z,57.40
2019-02-26T06:10:37.565Z,57.50
2019-02-26T06:13:07.630Z,57.60
2019-02-26T06:15:37.753Z,57.50
2019-02-26T06:18:06.944Z,57.70
2019-02-26T06:20:36.631Z,57.70
2019-02-26T06:23:06.027Z,57.90
2019-02-26T06:25:35.303Z,57.70
2019-02-26T06:28:07.038Z,57.70
2019-02-26T06:30:35.471Z,57.80
2019-02-26T06:33:06.666Z,57.70
2019-02-26T06:35:38.353Z,57.70
2019-02-26T06:38:09.290Z,57.80
2019-02-26T06:40:39.414Z,57.90
2019-02-26T06:43:09.556Z,57.90
2019-02-26T06:45:47.348Z,57.90
2019-02-26T06:48:19.337Z,58.10
2019-02-26T06:50:47.626Z,58.70
2019-02-26T06:53:20.954Z,58.00
2019-02-26T06:55:47.806Z,58.10
2019-02-26T06:58:22.452Z,58.10
2019-02-26T07:00:55.101Z,58.00
2019-02-26T07:03:24.737Z,58.20
2019-02-26T07:05:53.464Z,58.20
2019-02-26T07:08:24.227Z,58.30
2019-02-26T07:10:53.727Z,58.40
2019-02-26T07:13:23.092Z,58.30
2019-02-26T07:15:52.627Z,58.40
2019-02-26T07:18:21.916Z,58.60
2019-02-26T07:20:54.583Z,58.50
2019-02-26T07:23:22.090Z,58.50
2019-02-26T07:25:51.328Z,58.50
2019-02-26T07:28:22.332Z,58.40
2019-02-26T07:30:51.524Z,58.50
2019-02-26T07:33:20.805Z,58.60
2019-02-26T07:35:50.103Z,58.50
2019-02-26T07:38:21.234Z,58.40
2019-02-26T07:40:50.229Z,58.70
2019-02-26T07:43:22.499Z,58.60
2019-02-26T07:45:51.497Z,58.60
2019-02-26T07:48:23.612Z,58.60
2019-02-26T07:50:51.592Z,58.70
2019-02-26T07:53:22.690Z,58.70
2019-02-26T07:55:52.751Z,58.70
2019-02-26T07:58:22.141Z,58.50
2019-02-26T08:00:52.197Z,58.60
2019-02-26T08:03:24.143Z,58.70
2019-02-26T08:05:52.507Z,58.60
2019-02-26T08:08:21.746Z,58.60
2019-02-26T08:10:52.965Z,58.60
2019-02-26T08:13:23.828Z,58.80
2019-02-26T08:15:54.968Z,58.60
2019-02-26T08:18:23.888Z,58.70
2019-02-26T08:20:56.826Z,58.70
2019-02-26T08:23:26.263Z,58.70
2019-02-26T08:25:57.294Z,58.70
2019-02-26T08:28:26.410Z,58.70
2019-02-26T08:30:57.274Z,58.80
2019-02-26T08:33:26.642Z,58.70
2019-02-26T08:35:56.231Z,58.60
2019-02-26T08:38:29.271Z,58.50
2019-02-26T08:40:56.431Z,58.70
2019-02-26T08:43:25.969Z,58.70
2019-02-26T08:45:55.226Z,59.00
2019-02-26T08:48:26.852Z,58.70
2019-02-26T08:50:55.997Z,58.70
2019-02-26T08:53:26.638Z,58.70
2019-02-26T08:55:58.785Z,58.90
2019-02-26T08:58:28.415Z,58.70
2019-02-26T09:00:57.663Z,58.60
2019-02-26T09:03:26.931Z,58.60
2019-02-26T09:06:03.256Z,58.50
2019-02-26T09:08:44.059Z,58.60
2019-02-26T09:11:22.817Z,58.60
2019-02-26T09:13:52.101Z,58.90
2019-02-26T09:16:22.273Z,58.70
2019-02-26T09:18:52.287Z,59.10
2019-02-26T09:21:22.842Z,59.00
2019-02-26T09:23:54.929Z,59.00
2019-02-26T09:26:23.207Z,58.80
2019-02-26T09:28:54.846Z,58.80
2019-02-26T09:31:24.418Z,59.10
2019-02-26T09:33:53.710Z,58.80
2019-02-26T09:36:23.624Z,58.90
2019-02-26T09:38:53.848Z,58.80
2019-02-26T09:41:23.123Z,59.20
2019-02-26T09:43:52.371Z,59.20
2019-02-26T09:46:21.623Z,59.80
2019-02-26T09:48:51.178Z,59.30
2019-02-26T09:51:20.418Z,59.20
2019-02-26T09:53:52.014Z,59.50
2019-02-26T09:56:20.967Z,59.50
2019-02-26T09:58:50.854Z,60.30
2019-02-26T10:01:20.536Z,60.30
2019-02-26T10:03:49.838Z,59.60
2019-02-26T10:06:24.728Z,60.10
2019-02-26T10:08:56.041Z,61.90
2019-02-26T10:11:26.081Z,60.90
2019-02-26T10:13:55.841Z,61.20
2019-02-26T10:16:28.138Z,60.40
2019-02-26T10:18:57.020Z,60.20
2019-02-26T10:21:26.320Z,60.80
2019-02-26T10:23:56.872Z,60.50
2019-02-26T10:26:28.420Z,61.70
2019-02-26T10:29:03.546Z,61.00
2019-02-26T10:31:28.558Z,61.20
2019-02-26T10:33:58.208Z,61.20
2019-02-26T10:36:30.305Z,60.80
2019-02-26T10:39:00.254Z,60.50
2019-02-26T10:41:31.027Z,60.50
2019-02-26T10:44:00.730Z,61.20
2019-02-26T10:46:32.248Z,61.00
2019-02-26T10:49:01.181Z,61.50
2019-02-26T10:51:30.510Z,60.90
2019-02-26T10:54:00.547Z,61.20
2019-02-26T10:56:35.227Z,60.90
2019-02-26T10:59:03.516Z,60.80
2019-02-26T11:01:33.622Z,60.90
2019-02-26T11:04:04.652Z,60.90
2019-02-26T11:06:38.282Z,60.70
2019-02-26T11:09:09.286Z,60.80
2019-02-26T11:11:39.967Z,60.90
2019-02-26T11:14:10.678Z,61.00
2019-02-26T11:16:40.675Z,61.00
2019-02-26T11:19:12.192Z,60.70
2019-02-26T11:21:40.849Z,60.60
2019-02-26T11:24:11.293Z,60.60
2019-02-26T11:26:43.736Z,60.30
2019-02-26T11:29:12.215Z,60.20
2019-02-26T11:31:44.152Z,60.30
2019-02-26T11:34:13.386Z,60.00
2019-02-26T11:36:42.877Z,60.30
2019-02-26T11:39:12.400Z,60.80
2019-02-26T11:41:41.633Z,60.10
2019-02-26T11:44:12.610Z,60.00
2019-02-26T11:46:43.797Z,59.90
2019-02-26T11:49:14.464Z,60.10
2019-02-26T11:51:43.752Z,59.80
2019-02-26T11:54:15.036Z,59.70
2019-02-26T11:56:44.537Z,59.90
2019-02-26T11:59:16.922Z,59.90
2019-02-26T12:01:46.527Z,59.80
2019-02-26T12:04:17.043Z,59.60
2019-02-26T12:06:47.692Z,59.50
2019-02-26T12:09:16.934Z,59.50
2019-02-26T12:11:46.172Z,59.60
2019-02-26T12:14:18.427Z,59.70
2019-02-26T12:16:46.725Z,59.40
2019-02-26T12:19:16.401Z,59.30
2019-02-26T12:21:49.166Z,59.30
2019-02-26T12:24:16.581Z,59.30
2019-02-26T12:26:47.703Z,59.40
2019-02-26T12:29:18.554Z,59.10
2019-02-26T12:31:47.602Z,59.10
2019-02-26T12:34:17.616Z,58.80
2019-02-26T12:36:48.134Z,58.90
2019-02-26T12:39:20.987Z,59.00
2019-02-26T12:41:49.543Z,58.70
2019-02-26T12:44:19.136Z,58.50
2019-02-26T12:46:51.073Z,58.70
2019-02-26T12:49:22.418Z,58.70
2019-02-26T12:51:53.745Z,58.40
2019-02-26T12:54:21.777Z,58.10
2019-02-26T12:56:52.259Z,58.10
2019-02-26T12:59:21.933Z,57.80
2019-02-26T13:01:51.875Z,57.80
2019-02-26T13:04:24.812Z,57.70
2019-02-26T13:06:52.382Z,57.30
2019-02-26T13:09:26.473Z,57.10
2019-02-26T13:12:00.969Z,57.50
2019-02-26T13:14:24.842Z,57.20
2019-02-26T13:16:57.100Z,56.00
2019-02-26T13:19:29.248Z,56.60
2019-02-26T13:22:04.721Z,56.60
2019-02-26T13:24:27.196Z,56.20
2019-02-26T13:26:59.712Z,56.50
2019-02-26T13:29:27.377Z,56.40
2019-02-26T13:31:59.812Z,56.10
2019-02-26T13:34:27.497Z,56.50
2019-02-26T13:36:57.121Z,56.10
2019-02-26T13:39:36.851Z,56.30
2019-02-26T13:42:03.786Z,56.10
2019-02-26T13:44:28.328Z,56.00
2019-02-26T13:46:57.868Z,55.80
2019-02-26T13:49:27.189Z,55.00
2019-02-26T13:51:56.475Z,55.70
2019-02-26T13:54:25.727Z,55.80
2019-02-26T13:56:55.041Z,55.20
2019-02-26T13:59:24.338Z,55.30
2019-02-26T14:01:53.578Z,54.40
2019-02-26T14:04:23.439Z,55.40
2019-02-26T14:06:53.042Z,54.80
2019-02-26T14:09:22.312Z,54.90
2019-02-26T14:11:51.612Z,55.00
2019-02-26T14:14:20.975Z,54.10
2019-02-26T14:16:50.226Z,54.50
2019-02-26T14:19:19.473Z,54.00
2019-02-26T14:21:48.740Z,54.10
2019-02-26T14:24:18.014Z,53.70
2019-02-26T14:26:47.267Z,53.00
2019-02-26T14:29:16.588Z,53.30
2019-02-26T14:31:46.220Z,53.70
2019-02-26T14:34:15.502Z,53.70
2019-02-26T14:36:45.186Z,54.00
2019-02-26T14:39:14.811Z,53.60
2019-02-26T14:41:44.073Z,53.50
2019-02-26T14:44:13.393Z,53.50
2019-02-26T14:46:42.703Z,53.20
2019-02-26T14:49:11.950Z,53.10
2019-02-26T14:51:42.873Z,52.60
2019-02-26T14:54:12.134Z,53.20
2019-02-26T14:56:41.360Z,53.10
2019-02-26T14:59:10.814Z,52.20
2019-02-26T15:01:40.452Z,52.80
2019-02-26T15:04:09.717Z,52.60
2019-02-26T15:06:39.070Z,51.20
2019-02-26T15:09:08.327Z,51.80
2019-02-26T15:11:39.651Z,51.60
2019-02-26T15:14:08.575Z,51.70
2019-02-26T15:16:37.858Z,51.60
2019-02-26T15:19:07.136Z,51.30
2019-02-26T15:21:36.426Z,51.90
2019-02-26T15:24:05.689Z,51.70
2019-02-26T15:26:34.983Z,51.50
2019-02-26T15:29:04.241Z,51.50
2019-02-26T15:31:33.789Z,52.00
2019-02-26T15:34:03.025Z,51.60
2019-02-26T15:36:32.609Z,51.20
2019-02-26T15:39:01.889Z,51.30
2019-02-26T15:41:34.156Z,51.30
2019-02-26T15:44:03.898Z,50.40
2019-02-26T15:46:33.977Z,51.10
2019-02-26T15:49:07.306Z,51.10
2019-02-26T15:51:35.082Z,51.10
2019-02-26T15:54:04.630Z,51.10
2019-02-26T15:56:33.922Z,51.00
2019-02-26T15:59:04.821Z,51.50
2019-02-26T16:01:34.576Z,51.20
2019-02-26T16:04:03.952Z,51.60
2019-02-26T16:06:33.237Z,51.50
2019-02-26T16:09:02.537Z,51.10
2019-02-26T16:11:34.090Z,51.50
2019-02-26T16:14:03.355Z,51.40
2019-02-26T16:16:32.590Z,51.10
2019-02-26T16:19:01.887Z,51.40
2019-02-26T16:21:31.084Z,51.40
2019-02-26T16:24:02.017Z,51.40
2019-02-26T16:26:31.422Z,51.10
2019-02-26T16:29:01.039Z,51.10
2019-02-26T16:31:30.926Z,50.90
2019-02-26T16:34:00.528Z,50.80
2019-02-26T16:36:31.729Z,50.90
2019-02-26T16:39:01.139Z,51.10
2019-02-26T16:41:32.004Z,51.20
2019-02-26T16:44:01.307Z,51.20
2019-02-26T16:46:30.713Z,51.10
2019-02-26T16:49:00.280Z,51.20
2019-02-26T16:51:29.708Z,51.20
2019-02-26T16:54:16.020Z,51.30
2019-02-26T16:57:06.976Z,51.30
2019-02-26T16:59:38.575Z,51.20
2019-02-26T17:02:09.146Z,51.40
2019-02-26T17:04:38.614Z,51.20
2019-02-26T17:07:09.668Z,52.10
2019-02-26T17:09:38.922Z,51.20
2019-02-26T17:12:08.162Z,51.50
2019-02-26T17:14:37.469Z,51.50
2019-02-26T17:17:06.808Z,51.50
2019-02-26T17:19:36.126Z,51.60
2019-02-26T17:22:05.424Z,51.70
2019-02-26T17:24:34.697Z,51.70
2019-02-26T17:27:06.429Z,51.70
2019-02-26T17:29:55.750Z,51.70
2019-02-26T17:32:25.025Z,51.70
2019-02-26T17:34:55.749Z,51.70
2019-02-26T17:37:25.182Z,51.70
2019-02-26T17:39:54.547Z,51.90
2019-02-26T17:42:23.827Z,51.80
2019-02-26T17:44:54.632Z,51.80
2019-02-26T17:47:24.096Z,51.80
2019-02-26T17:49:53.324Z,52.00
2019-02-26T17:52:22.509Z,51.90
2019-02-26T17:54:51.813Z,52.00
2019-02-26T17:57:21.103Z,52.00
2019-02-26T17:59:50.306Z,52.00
2019-02-26T18:02:19.612Z,52.00
2019-02-26T18:04:49.263Z,52.10
2019-02-26T18:07:18.556Z,52.10
2019-02-26T18:09:47.775Z,52.00
2019-02-26T18:12:17.009Z,52.10
2019-02-26T18:14:46.186Z,52.10
2019-02-26T18:17:15.446Z,52.10
2019-02-26T18:19:44.664Z,52.20
2019-02-26T18:22:13.836Z,52.10
2019-02-26T18:24:43.103Z,52.20
2019-02-26T18:27:12.407Z,52.30
2019-02-26T18:29:41.680Z,52.20
2019-02-26T18:32:11.267Z,52.20
2019-02-26T18:34:40.925Z,52.20
2019-02-26T18:37:10.157Z,52.20
2019-02-26T18:39:39.418Z,52.30
2019-02-26T18:42:08.655Z,52.40
2019-02-26T18:44:37.930Z,52.30
2019-02-26T18:47:07.913Z,52.30
2019-02-26T18:49:55.503Z,52.30
2019-02-26T18:52:24.296Z,52.30
2019-02-26T18:54:55.087Z,52.30
2019-02-26T18:57:25.761Z,52.40
2019-02-26T18:59:55.986Z,52.40
2019-02-26T19:02:25.235Z,52.40
2019-02-26T19:04:54.454Z,52.50
2019-02-26T19:07:23.709Z,52.50
2019-02-26T19:09:52.972Z,52.50
2019-02-26T19:12:22.570Z,52.50
2019-02-26T19:14:51.889Z,52.50
2019-02-26T19:17:21.154Z,52.50
2019-02-26T19:19:50.576Z,52.50
2019-02-26T19:22:20.981Z,52.50
2019-02-26T19:24:50.236Z,52.50
2019-02-26T19:27:20.136Z,52.50
2019-02-26T19:29:50.531Z,52.50
2019-02-26T19:32:19.770Z,52.50
2019-02-26T19:34:49.060Z,52.50
2019-02-26T19:37:19.119Z,52.60
2019-02-26T19:39:49.158Z,52.60
2019-02-26T19:42:20.944Z,52.80
2019-02-26T19:44:49.264Z,52.70
2019-02-26T19:47:20.473Z,52.70
2019-02-26T19:49:52.671Z,52.70
2019-02-26T19:52:21.900Z,52.70
2019-02-26T19:54:51.141Z,52.70
2019-02-26T19:57:20.367Z,52.90
2019-02-26T19:59:49.669Z,52.80
2019-02-26T20:02:18.930Z,53.10
2019-02-26T20:04:48.200Z,53.60
2019-02-26T20:07:17.492Z,52.90
2019-02-26T20:09:46.745Z,52.90
2019-02-26T20:12:17.220Z,52.90
2019-02-26T20:14:48.622Z,52.80
2019-02-26T20:17:17.376Z,52.90
2019-02-26T20:19:46.662Z,52.90
2019-02-26T20:22:15.917Z,52.90
2019-02-26T20:24:45.406Z,52.80
2019-02-26T20:27:14.697Z,52.90
2019-02-26T20:29:43.956Z,53.00
2019-02-26T20:32:13.300Z,53.00
2019-02-26T20:34:42.555Z,53.10
2019-02-26T20:37:11.768Z,52.90
2019-02-26T20:39:42.437Z,52.90
2019-02-26T20:42:12.190Z,53.00
2019-02-26T20:44:45.236Z,53.10
2019-02-26T20:47:12.342Z,53.10
2019-02-26T20:49:46.308Z,53.10
2019-02-26T20:52:17.947Z,53.10
2019-02-26T20:54:47.193Z,53.10
2019-02-26T20:57:16.453Z,53.10
2019-02-26T20:59:45.724Z,53.10
2019-02-26T21:02:14.964Z,53.80
2019-02-26T21:04:44.240Z,53.20
2019-02-26T21:07:13.679Z,53.20
2019-02-26T21:09:42.922Z,53.10
2019-02-26T21:12:12.137Z,53.20
2019-02-26T21:14:41.963Z,53.30
2019-02-26T21:17:11.125Z,53.20
2019-02-26T21:19:40.429Z,53.20
2019-02-26T21:22:09.720Z,53.30
2019-02-26T21:24:38.948Z,53.20
2019-02-26T21:27:08.165Z,53.30
2019-02-26T21:29:38.833Z,53.30
2019-02-26T21:32:08.568Z,53.40
2019-02-26T21:34:37.862Z,53.30
2019-02-26T21:37:07.369Z,53.30
2019-02-26T21:39:36.941Z,53.30
2019-02-26T21:42:06.609Z,53.30
2019-02-26T21:44:35.920Z,53.30
2019-02-26T21:47:05.155Z,53.40
2019-02-26T21:49:38.215Z,53.40
2019-02-26T21:52:11.199Z,53.40
2019-02-26T21:54:42.868Z,53.40
2019-02-26T21:57:12.108Z,53.40
2019-02-26T21:59:49.659Z,53.30
2019-02-26T22:02:12.269Z,53.50
2019-02-26T22:04:41.528Z,53.50
2019-02-26T22:07:11.793Z,53.50
2019-02-26T22:09:41.020Z,53.50
2019-02-26T22:12:10.208Z,53.50
2019-02-26T22:14:39.508Z,53.60
2019-02-26T22:17:08.763Z,53.50
2019-02-26T22:19:40.168Z,53.60
2019-02-26T22:22:09.032Z,53.70
2019-02-26T22:24:40.550Z,53.70
2019-02-26T22:27:09.607Z,53.70
2019-02-26T22:29:38.860Z,53.70
2019-02-26T22:32:08.106Z,53.70
2019-02-26T22:34:37.317Z,53.70
2019-02-26T22:37:07.279Z,53.70
2019-02-26T22:39:37.411Z,53.70
2019-02-26T22:42:08.563Z,53.70
2019-02-26T22:44:38.135Z,53.80
2019-02-26T22:47:07.628Z,53.80
2019-02-26T22:49:44.214Z,53.80
2019-02-26T22:52:14.682Z,54.00
2019-02-26T22:54:44.082Z,54.00
2019-02-26T22:57:15.048Z,54.10
2019-02-26T22:59:45.410Z,54.10
2019-02-26T23:02:15.232Z,54.10
2019-02-26T23:04:44.685Z,54.20
2019-02-26T23:07:14.296Z,54.20
2019-02-26T23:09:43.650Z,54.20
2019-02-26T23:12:13.999Z,54.30
2019-02-26T23:14:43.798Z,54.20
2019-02-26T23:17:13.411Z,54.30
2019-02-26T23:19:42.791Z,54.40
2019-02-26T23:22:12.590Z,54.40
2019-02-26T23:24:42.242Z,54.50
2019-02-26T23:27:14.910Z,54.60
2019-02-26T23:29:44.714Z,54.60
2019-02-26T23:32:15.996Z,54.70
2019-02-26T23:34:48.416Z,54.50
2019-02-26T23:37:17.956Z,54.60
2019-02-26T23:39:47.571Z,54.70
2019-02-26T23:42:17.111Z,54.80
2019-02-26T23:44:50.884Z,54.70
2019-02-26T23:47:17.608Z,54.80
2019-02-26T23:49:47.798Z,54.80
2019-02-26T23:52:17.700Z,54.90
2019-02-26T23:54:47.110Z,54.90
2019-02-26T23:57:16.662Z,54.90
2019-02-26T23:59:46.030Z,55.00
